Time;durP1;ratioP1;P1;durP2;ratioP2;P2;SDS_P1;SDS_P2;PMS_P1;PMS_P2;Temp;Humidity;BMP_temperature;BMP_pressure;BME280_temperature;BME280_humidity;BME280_pressure;Samples;Min_cycle;Max_cycle;Signal;HPM_P1;HPM_P2
2022/03/28 00:01:23;;;;;;;14.32;10.80;;;18.90;62.40;;;;;;4992703;28;20522;-76
2022/03/28 00:03:49;;;;;;;14.50;11.18;;;18.90;62.30;;;;;;4992621;28;20046;-75
2022/03/28 00:06:14;;;;;;;13.00;10.15;;;18.90;63.00;;;;;;4992239;28;20049;-76
2022/03/28 00:08:40;;;;;;;14.50;10.75;;;18.90;63.20;;;;;;4992392;28;20026;-76
2022/03/28 00:11:06;;;;;;;13.63;9.75;;;18.90;63.90;;;;;;4992804;28;20022;-75
2022/03/28 00:13:33;;;;;;;14.07;10.18;;;18.90;64.90;;;;;;4992355;28;20038;-76
2022/03/28 00:15:59;;;;;;;13.60;10.10;;;18.90;65.00;;;;;;4992881;28;20054;-75
2022/03/28 00:18:25;;;;;;;11.85;8.82;;;18.90;65.70;;;;;;4992456;28;20081;-75
2022/03/28 00:20:53;;;;;;;12.93;9.93;;;18.80;66.10;;;;;;4974258;28;20038;-75
2022/03/28 00:23:22;;;;;;;13.13;9.50;;;18.80;66.00;;;;;;4992319;28;20026;-76
2022/03/28 00:25:49;;;;;;;14.25;10.82;;;18.80;66.10;;;;;;4991929;28;20027;-75
2022/03/28 00:28:14;;;;;;;14.13;10.25;;;18.80;66.20;;;;;;4992362;28;20026;-75
2022/03/28 00:30:41;;;;;;;13.27;9.48;;;18.80;66.30;;;;;;4991671;28;20018;-75
2022/03/28 00:33:09;;;;;;;13.30;9.13;;;18.80;66.30;;;;;;4974689;28;20034;-75
2022/03/28 00:35:35;;;;;;;12.27;9.15;;;18.80;66.00;;;;;;4991915;28;20057;-75
2022/03/28 00:38:03;;;;;;;13.73;9.30;;;18.70;66.20;;;;;;4974636;28;20058;-75
2022/03/28 00:40:31;;;;;;;12.80;8.73;;;18.70;66.00;;;;;;4992012;28;20034;-74
2022/03/28 00:43:05;;;;;;;11.68;8.60;;;18.70;66.00;;;;;;4974850;28;20130;-75
2022/03/28 00:45:32;;;;;;;12.70;8.40;;;18.70;65.80;;;;;;4991894;28;20038;-75
2022/03/28 00:47:59;;;;;;;12.68;8.93;;;18.70;65.80;;;;;;4992278;28;20026;-74
2022/03/28 00:50:25;;;;;;;12.55;8.88;;;18.70;65.70;;;;;;4991775;28;20508;-75
2022/03/28 00:52:51;;;;;;;13.18;9.10;;;18.70;65.60;;;;;;4991669;28;20034;-75
2022/03/28 00:55:17;;;;;;;11.02;7.97;;;18.70;65.50;;;;;;4991633;28;20034;-75
2022/03/28 00:57:43;;;;;;;12.70;7.95;;;18.60;65.60;;;;;;4991578;28;20025;-75
2022/03/28 01:00:09;;;;;;;11.15;8.40;;;18.60;65.40;;;;;;4991819;28;20041;-76
2022/03/28 01:02:36;;;;;;;12.00;8.13;;;18.60;65.20;;;;;;4974090;28;20053;-75
2022/03/28 01:05:02;;;;;;;12.13;9.20;;;18.60;65.20;;;;;;4991736;28;20018;-75
2022/03/28 01:07:28;;;;;;;10.82;7.82;;;18.60;65.00;;;;;;4974538;28;20394;-75
2022/03/28 01:09:56;;;;;;;12.80;8.23;;;18.60;65.00;;;;;;4990666;28;20085;-76
2022/03/28 01:12:25;;;;;;;11.52;8.35;;;18.60;64.90;;;;;;4974274;28;20486;-75
2022/03/28 01:14:51;;;;;;;11.80;7.90;;;18.60;64.80;;;;;;4974008;28;20027;-75
2022/03/28 01:20:01;;;;;;;12.00;8.15;;;18.60;64.60;;;;;;4991800;28;20575;-75
2022/03/28 01:22:27;;;;;;;11.40;7.72;;;18.50;64.50;;;;;;4991960;28;20042;-74
2022/03/28 01:24:52;;;;;;;11.65;7.93;;;18.50;64.30;;;;;;4991078;28;20026;-74
2022/03/28 01:27:20;;;;;;;12.25;8.63;;;18.50;64.10;;;;;;4991658;28;20050;-74
2022/03/28 01:29:47;;;;;;;10.82;7.13;;;18.50;64.10;;;;;;4991418;28;20556;-74
2022/03/28 01:32:12;;;;;;;10.05;7.32;;;18.50;63.90;;;;;;4991586;28;20029;-74
2022/03/28 01:34:38;;;;;;;11.05;7.68;;;18.50;63.70;;;;;;4991347;28;20030;-74
2022/03/28 01:37:04;;;;;;;9.98;7.75;;;18.50;63.60;;;;;;4974105;28;20030;-74
2022/03/28 01:39:32;;;;;;;11.98;7.38;;;18.50;63.40;;;;;;4974294;28;20494;-74
2022/03/28 01:41:58;;;;;;;9.55;6.63;;;18.50;63.40;;;;;;4991868;28;20030;-75
2022/03/28 01:44:24;;;;;;;9.60;6.95;;;18.40;63.40;;;;;;4991394;28;20022;-74
2022/03/28 01:46:50;;;;;;;9.43;6.72;;;18.40;63.30;;;;;;4991269;28;20470;-75
2022/03/28 01:49:18;;;;;;;9.93;6.80;;;18.40;63.40;;;;;;4991500;28;20035;-74
2022/03/28 01:51:46;;;;;;;9.60;6.65;;;18.40;63.30;;;;;;4991123;28;20035;-75
2022/03/28 01:54:13;;;;;;;12.57;7.03;;;18.40;63.20;;;;;;4991254;28;20406;-75
2022/03/28 01:56:39;;;;;;;9.85;7.05;;;18.40;63.10;;;;;;4991165;28;20022;-75
2022/03/28 01:59:06;;;;;;;8.98;6.75;;;18.30;63.00;;;;;;4991418;28;20053;-74
2022/03/28 02:01:32;;;;;;;9.00;6.55;;;18.40;62.90;;;;;;4973631;28;20038;-75
2022/03/28 02:03:58;;;;;;;9.48;6.97;;;18.40;62.90;;;;;;4991179;28;20030;-74
2022/03/28 02:06:24;;;;;;;9.43;6.55;;;18.30;62.90;;;;;;4973858;28;20542;-75
2022/03/28 02:08:50;;;;;;;9.02;6.50;;;18.30;62.90;;;;;;4991122;28;20026;-75
2022/03/28 02:11:16;;;;;;;9.25;6.53;;;18.30;62.90;;;;;;4991338;28;20054;-74
2022/03/28 02:13:41;;;;;;;9.75;7.25;;;18.30;62.70;;;;;;4991325;28;20116;-74
2022/03/28 02:16:09;;;;;;;9.52;5.72;;;18.30;62.60;;;;;;4994916;28;20074;-75
2022/03/28 02:18:35;;;;;;;9.63;6.25;;;18.30;62.60;;;;;;4994619;28;20026;-76
2022/03/28 02:21:01;;;;;;;8.57;6.28;;;18.20;62.50;;;;;;4994753;28;20057;-74
2022/03/28 02:23:28;;;;;;;9.60;6.68;;;18.20;62.30;;;;;;4994944;28;20506;-75
2022/03/28 02:25:53;;;;;;;8.60;6.57;;;18.20;62.30;;;;;;4977003;28;20022;-74
2022/03/28 02:28:19;;;;;;;10.50;5.88;;;18.20;62.30;;;;;;4994288;28;20372;-75
2022/03/28 02:30:45;;;;;;;8.43;5.78;;;18.20;62.00;;;;;;4976896;28;20025;-76
2022/03/28 02:33:12;;;;;;;8.73;5.53;;;18.20;62.00;;;;;;4994486;28;20489;-75
2022/03/28 02:35:37;;;;;;;9.60;6.65;;;18.20;61.90;;;;;;4994366;28;20029;-74
2022/03/28 02:38:03;;;;;;;12.10;6.88;;;18.20;62.00;;;;;;4994680;28;20394;-75
2022/03/28 02:40:29;;;;;;;9.55;6.22;;;18.20;62.00;;;;;;4977147;28;20481;-76
2022/03/28 02:42:59;;;;;;;9.50;6.13;;;18.20;62.00;;;;;;4993762;28;20038;-76
2022/03/28 02:45:30;;;;;;;9.80;6.20;;;18.10;61.90;;;;;;4994445;28;20034;-74
2022/03/28 02:47:56;;;;;;;8.63;5.65;;;18.10;61.90;;;;;;4994600;28;20041;-75
2022/03/28 02:50:22;;;;;;;7.60;5.18;;;18.10;61.90;;;;;;4994208;28;20102;-75
2022/03/28 02:52:48;;;;;;;8.88;5.70;;;18.10;61.80;;;;;;4976430;28;20022;-74
2022/03/28 02:55:15;;;;;;;6.72;5.20;;;18.10;61.60;;;;;;4994220;28;20033;-74
2022/03/28 02:57:41;;;;;;;8.70;5.78;;;18.10;61.70;;;;;;4993492;28;20027;-76
2022/03/28 03:00:11;;;;;;;8.45;5.68;;;18.10;61.70;;;;;;4994134;28;20108;-74
2022/03/28 03:02:42;;;;;;;8.07;5.32;;;18.10;61.50;;;;;;4976305;28;20501;-75
2022/03/28 03:05:09;;;;;;;6.70;4.63;;;18.00;61.40;;;;;;4994073;28;20030;-76
2022/03/28 03:07:35;;;;;;;7.72;4.95;;;18.10;61.40;;;;;;4976262;28;20076;-75
2022/03/28 03:10:00;;;;;;;6.38;4.95;;;18.00;62.00;;;;;;4994094;28;20109;-74
2022/03/28 03:12:26;;;;;;;6.75;4.70;;;18.00;61.30;;;;;;4976475;28;20027;-74
2022/03/28 03:14:52;;;;;;;6.78;4.70;;;18.00;61.10;;;;;;4993467;28;20391;-75
2022/03/28 03:17:19;;;;;;;7.28;4.55;;;18.00;61.00;;;;;;4993684;28;20019;-75
2022/03/28 03:19:44;;;;;;;8.95;5.15;;;18.00;61.00;;;;;;4993445;28;20026;-75
2022/03/28 03:22:11;;;;;;;6.68;4.45;;;18.00;61.00;;;;;;4993691;28;20041;-75
2022/03/28 03:24:37;;;;;;;6.85;4.30;;;18.00;61.00;;;;;;4992346;28;20990;-76
2022/03/28 03:27:03;;;;;;;5.78;4.07;;;18.00;61.00;;;;;;4975207;28;20404;-75
2022/03/28 03:29:29;;;;;;;7.20;4.45;;;18.00;61.00;;;;;;4993504;28;20029;-76
2022/03/28 03:31:54;;;;;;;6.30;4.13;;;17.90;60.80;;;;;;4993492;28;20026;-75
2022/03/28 03:34:20;;;;;;;6.90;4.60;;;17.90;60.80;;;;;;4975748;28;20490;-74
2022/03/28 03:36:46;;;;;;;7.10;4.93;;;17.90;60.80;;;;;;4975509;28;20097;-75
2022/03/28 03:39:12;;;;;;;7.78;5.57;;;17.90;60.70;;;;;;4993213;28;20444;-75
2022/03/28 03:41:38;;;;;;;8.15;4.80;;;17.90;60.80;;;;;;4992915;28;20061;-75
2022/03/28 03:44:05;;;;;;;6.70;4.30;;;17.90;60.60;;;;;;4993228;28;20053;-75
2022/03/28 03:46:32;;;;;;;6.93;4.45;;;17.90;60.60;;;;;;4992874;28;20461;-74
2022/03/28 03:48:58;;;;;;;7.80;4.25;;;17.90;60.60;;;;;;4993413;28;20026;-74
2022/03/28 03:51:23;;;;;;;7.13;4.90;;;17.90;60.50;;;;;;4992633;28;20121;-76
2022/03/28 03:53:49;;;;;;;7.00;4.45;;;17.80;60.50;;;;;;4992962;28;20023;-76
2022/03/28 03:56:15;;;;;;;6.20;4.28;;;17.80;60.40;;;;;;4993010;28;20046;-74
2022/03/28 03:58:41;;;;;;;6.68;4.63;;;17.80;60.30;;;;;;4992652;28;20077;-75
2022/03/28 04:01:09;;;;;;;8.38;4.43;;;17.80;60.20;;;;;;4992365;28;20050;-75
2022/03/28 04:03:36;;;;;;;5.30;4.15;;;17.80;60.10;;;;;;4992552;28;20072;-75
2022/03/28 04:06:02;;;;;;;7.18;4.63;;;17.80;60.10;;;;;;4975492;28;20027;-75
2022/03/28 04:08:28;;;;;;;7.07;4.60;;;17.80;60.00;;;;;;4975351;28;20025;-77
2022/03/28 04:10:54;;;;;;;6.32;3.92;;;17.80;60.00;;;;;;4975235;28;20030;-76
2022/03/28 04:13:20;;;;;;;9.07;4.20;;;17.80;60.00;;;;;;4992345;28;20375;-75
2022/03/28 04:15:46;;;;;;;6.45;3.78;;;17.80;60.00;;;;;;4974631;28;20057;-76
2022/03/28 04:18:12;;;;;;;7.68;4.47;;;17.80;60.00;;;;;;4992623;28;20089;-76
2022/03/28 04:20:38;;;;;;;7.22;3.90;;;17.70;59.90;;;;;;4992170;28;20117;-76
2022/03/28 04:23:04;;;;;;;6.32;3.80;;;17.70;60.00;;;;;;4992510;28;20026;-75
2022/03/28 04:25:30;;;;;;;6.00;3.95;;;17.70;59.80;;;;;;4974947;28;20041;-76
2022/03/28 04:27:55;;;;;;;6.25;4.28;;;17.70;59.80;;;;;;4975039;28;20023;-75
2022/03/28 04:30:22;;;;;;;5.78;4.45;;;17.70;59.80;;;;;;4991906;28;20441;-75
2022/03/28 04:32:48;;;;;;;7.00;4.43;;;17.70;59.80;;;;;;4992474;28;20413;-75
2022/03/28 04:35:14;;;;;;;6.93;4.03;;;17.70;59.70;;;;;;4992418;28;20113;-76
2022/03/28 04:37:42;;;;;;;7.63;4.38;;;17.70;59.60;;;;;;4974385;28;20344;-75
2022/03/28 04:40:11;;;;;;;7.63;4.30;;;17.70;59.60;;;;;;4992215;28;20034;-76
2022/03/28 04:42:36;;;;;;;6.95;4.35;;;17.70;59.60;;;;;;4974485;28;20314;-75
2022/03/28 04:45:05;;;;;;;6.55;3.85;;;17.60;59.50;;;;;;4992031;28;20038;-75
2022/03/28 04:47:31;;;;;;;6.60;4.30;;;17.60;59.40;;;;;;4991988;28;20524;-75
2022/03/28 04:49:57;;;;;;;7.38;3.40;;;17.60;59.50;;;;;;4991958;28;20359;-76
2022/03/28 04:52:23;;;;;;;6.20;3.75;;;17.60;59.40;;;;;;4991499;28;20050;-76
2022/03/28 04:54:49;;;;;;;7.55;3.90;;;17.60;59.30;;;;;;4987677;28;20029;-76
2022/03/28 04:57:14;;;;;;;7.68;4.35;;;17.60;59.30;;;;;;4991921;28;20568;-75
2022/03/28 04:59:40;;;;;;;5.40;3.67;;;17.60;59.30;;;;;;4991638;28;20050;-75
2022/03/28 05:02:06;;;;;;;7.60;4.07;;;17.60;59.30;;;;;;4975558;28;20495;-76
2022/03/28 05:04:32;;;;;;;5.68;3.88;;;17.60;59.30;;;;;;4977609;28;20033;-75
2022/03/28 05:06:58;;;;;;;5.35;4.05;;;17.60;59.30;;;;;;4991805;28;20030;-74
2022/03/28 05:09:24;;;;;;;6.97;4.20;;;17.60;59.20;;;;;;4991643;28;20034;-75
2022/03/28 05:11:49;;;;;;;4.88;3.35;;;17.60;59.30;;;;;;4987868;28;20490;-75
2022/03/28 05:14:15;;;;;;;6.65;4.28;;;17.60;59.30;;;;;;4978530;28;20105;-77
2022/03/28 05:16:40;;;;;;;5.93;3.85;;;17.60;59.20;;;;;;4981551;28;20065;-74
2022/03/28 05:19:06;;;;;;;5.38;3.45;;;17.50;59.10;;;;;;4972274;28;20042;-77
2022/03/28 05:21:32;;;;;;;7.38;3.83;;;17.60;59.20;;;;;;4987380;28;20038;-77
2022/03/28 05:23:57;;;;;;;6.55;3.80;;;17.50;59.10;;;;;;4991698;28;20355;-77
2022/03/28 05:26:23;;;;;;;7.03;3.58;;;17.50;59.00;;;;;;4973909;28;20513;-77
2022/03/28 05:28:49;;;;;;;6.85;3.85;;;17.50;58.90;;;;;;4974226;28;20557;-77
2022/03/28 05:31:14;;;;;;;7.15;4.47;;;17.50;59.00;;;;;;4991519;28;20550;-77
2022/03/28 05:33:40;;;;;;;6.68;3.40;;;17.50;59.00;;;;;;4989910;28;20558;-77
2022/03/28 05:36:07;;;;;;;5.30;3.25;;;17.50;59.00;;;;;;4992188;28;20498;-76
2022/03/28 05:38:33;;;;;;;6.45;3.72;;;17.40;58.80;;;;;;4992172;28;20043;-77
2022/03/28 05:40:58;;;;;;;7.07;3.67;;;17.50;58.80;;;;;;4958548;28;20391;-77
2022/03/28 05:43:25;;;;;;;4.85;3.20;;;17.50;58.70;;;;;;4984535;28;20602;-77
2022/03/28 05:45:54;;;;;;;6.78;3.70;;;17.50;58.60;;;;;;4971990;28;20065;-77
2022/03/28 05:48:20;;;;;;;5.63;3.40;;;17.50;58.60;;;;;;4974062;28;20019;-79
2022/03/28 05:50:46;;;;;;;7.65;3.90;;;17.50;58.60;;;;;;4992109;28;20069;-77
2022/03/28 05:53:13;;;;;;;6.72;3.53;;;17.50;58.50;;;;;;4995268;28;20030;-78
2022/03/28 05:55:43;;;;;;;7.70;3.42;;;17.50;58.60;;;;;;4995006;28;20042;-77
2022/03/28 05:58:10;;;;;;;6.82;3.58;;;17.60;58.60;;;;;;4995047;28;20367;-77
2022/03/28 06:00:39;;;;;;;13.77;6.80;;;17.60;58.60;;;;;;4994139;28;20038;-77
2022/03/28 06:03:05;;;;;;;12.70;6.13;;;17.70;59.60;;;;;;4994503;28;20030;-76
2022/03/28 06:05:31;;;;;;;10.80;5.50;;;17.70;59.20;;;;;;4995026;28;20027;-78
2022/03/28 06:07:58;;;;;;;9.85;5.47;;;17.70;59.30;;;;;;4994188;28;20072;-78
2022/03/28 06:10:23;;;;;;;9.18;5.20;;;17.70;59.20;;;;;;4994741;28;20505;-79
2022/03/28 06:12:49;;;;;;;8.50;5.38;;;17.80;59.10;;;;;;4994916;28;20031;-78
2022/03/28 06:15:15;;;;;;;13.80;5.88;;;17.80;59.10;;;;;;4994840;28;20493;-77
2022/03/28 06:17:44;;;;;;;10.60;4.75;;;17.80;59.10;;;;;;4994499;28;20417;-78
2022/03/28 06:20:11;;;;;;;8.27;5.15;;;17.80;59.10;;;;;;4994260;28;20065;-78
2022/03/28 06:22:36;;;;;;;9.93;4.75;;;17.80;59.20;;;;;;4994430;28;20034;-78
2022/03/28 06:25:04;;;;;;;9.68;4.07;;;17.80;59.10;;;;;;4975536;28;20409;-79
2022/03/28 06:27:29;;;;;;;12.27;4.68;;;17.80;59.10;;;;;;4994538;28;20015;-78
2022/03/28 06:29:55;;;;;;;13.73;4.97;;;17.80;59.10;;;;;;4994511;28;20041;-80
2022/03/28 06:32:21;;;;;;;10.50;4.75;;;17.80;59.30;;;;;;4992720;28;20027;-79
2022/03/28 06:34:48;;;;;;;9.63;4.57;;;17.80;59.40;;;;;;4993218;28;20398;-77
2022/03/28 06:37:16;;;;;;;10.48;5.00;;;17.80;59.30;;;;;;4994474;28;20022;-78
2022/03/28 06:39:42;;;;;;;7.13;4.32;;;17.80;59.20;;;;;;4984967;28;20479;-79
2022/03/28 06:42:08;;;;;;;15.07;4.95;;;17.80;59.10;;;;;;4974952;28;20505;-77
2022/03/28 06:44:34;;;;;;;8.90;4.50;;;17.80;59.00;;;;;;4974881;28;20019;-77
2022/03/28 06:47:00;;;;;;;9.75;4.65;;;17.80;58.90;;;;;;4975145;28;20042;-77
2022/03/28 06:49:26;;;;;;;13.82;4.80;;;17.80;58.90;;;;;;4975706;28;20026;-76
2022/03/28 06:51:52;;;;;;;8.75;4.57;;;17.80;58.90;;;;;;4979903;28;20041;-77
2022/03/28 06:54:19;;;;;;;9.02;4.65;;;17.80;58.80;;;;;;4984656;28;20025;-77
2022/03/28 06:56:46;;;;;;;10.85;5.05;;;17.80;58.70;;;;;;4974183;28;20029;-77
2022/03/28 06:59:12;;;;;;;7.55;4.68;;;17.80;58.70;;;;;;4974416;28;20019;-78
2022/03/28 07:01:38;;;;;;;8.77;4.50;;;17.80;58.70;;;;;;4974315;28;20058;-77
2022/03/28 07:04:04;;;;;;;11.73;4.78;;;17.80;58.60;;;;;;4974756;28;20434;-77
2022/03/28 07:06:30;;;;;;;10.88;4.38;;;17.80;58.60;;;;;;4974501;28;20518;-76
2022/03/28 07:08:56;;;;;;;9.20;4.75;;;17.80;58.50;;;;;;4974444;28;20030;-78
2022/03/28 07:11:21;;;;;;;10.30;4.82;;;17.80;58.50;;;;;;4974178;28;20034;-78
2022/03/28 07:13:47;;;;;;;11.20;4.80;;;17.80;58.50;;;;;;4974321;28;20609;-78
2022/03/28 07:16:13;;;;;;;10.65;5.07;;;17.80;58.40;;;;;;4956946;28;20038;-77
2022/03/28 07:18:38;;;;;;;7.65;4.32;;;17.80;58.40;;;;;;4962579;28;20482;-78
2022/03/28 07:21:04;;;;;;;9.63;4.47;;;17.80;58.30;;;;;;4992421;28;20502;-76
2022/03/28 07:23:30;;;;;;;9.88;4.35;;;17.80;58.30;;;;;;4986908;28;20065;-71
2022/03/28 07:25:56;;;;;;;7.78;4.00;;;17.80;58.20;;;;;;4993670;28;20030;-76
2022/03/28 07:28:22;;;;;;;10.77;4.57;;;17.90;58.20;;;;;;4981825;28;20034;-75
2022/03/28 07:30:48;;;;;;;9.05;4.50;;;17.90;58.20;;;;;;4974036;28;20150;-74
2022/03/28 07:33:14;;;;;;;8.73;4.43;;;17.90;58.10;;;;;;4981365;28;20101;-75
2022/03/28 07:35:40;;;;;;;7.40;4.40;;;17.90;58.00;;;;;;4962755;28;20030;-73
2022/03/28 07:38:08;;;;;;;6.00;3.60;;;17.90;58.00;;;;;;4973876;28;20027;-75
2022/03/28 07:40:38;;;;;;;7.78;4.18;;;18.00;58.00;;;;;;4973772;28;20062;-75
2022/03/28 07:43:05;;;;;;;11.70;4.10;;;18.00;57.90;;;;;;4978805;28;20023;-78
2022/03/28 07:45:31;;;;;;;13.30;4.22;;;18.00;58.00;;;;;;4956708;28;20035;-76
2022/03/28 07:47:56;;;;;;;8.60;4.05;;;18.00;58.00;;;;;;4984892;28;20097;-77
2022/03/28 07:50:22;;;;;;;9.52;4.05;;;18.10;58.10;;;;;;4987432;28;20023;-78
2022/03/28 07:52:50;;;;;;;11.35;4.78;;;18.10;58.10;;;;;;4986201;28;20058;-76
2022/03/28 07:55:16;;;;;;;12.40;4.78;;;18.10;57.90;;;;;;4982653;28;20025;-77
2022/03/28 07:57:43;;;;;;;9.77;4.55;;;18.20;58.10;;;;;;4979990;28;20026;-79
2022/03/28 08:00:12;;;;;;;9.23;4.65;;;18.20;58.10;;;;;;4977710;28;20030;-76
2022/03/28 08:02:39;;;;;;;10.95;5.30;;;18.20;58.20;;;;;;4977979;28;20022;-76
2022/03/28 08:05:07;;;;;;;12.38;4.95;;;18.30;58.30;;;;;;4973818;28;20098;-76
2022/03/28 08:07:33;;;;;;;9.52;4.20;;;18.30;58.30;;;;;;4977966;28;20117;-77
2022/03/28 08:09:59;;;;;;;7.65;4.55;;;18.30;58.30;;;;;;4977078;28;20026;-76
2022/03/28 08:12:24;;;;;;;9.02;4.40;;;18.30;58.40;;;;;;4989771;28;20072;-76
2022/03/28 08:14:51;;;;;;;11.40;4.57;;;18.30;58.40;;;;;;4957546;28;20473;-77
2022/03/28 08:17:19;;;;;;;8.48;4.20;;;18.30;58.40;;;;;;4988933;28;20073;-75
2022/03/28 08:19:45;;;;;;;9.77;4.60;;;18.30;58.30;;;;;;4989632;28;20034;-77
2022/03/28 08:22:10;;;;;;;9.40;4.30;;;18.30;58.30;;;;;;4992448;28;20101;-78
2022/03/28 08:24:36;;;;;;;9.40;4.47;;;18.30;58.30;;;;;;4992505;28;20033;-76
2022/03/28 08:27:02;;;;;;;8.18;4.25;;;18.40;58.20;;;;;;4992575;28;20026;-77
2022/03/28 08:29:27;;;;;;;7.03;3.67;;;18.30;58.20;;;;;;4974706;28;20049;-78
2022/03/28 08:31:53;;;;;;;11.32;4.93;;;18.40;58.10;;;;;;4974337;28;20049;-77
2022/03/28 08:34:19;;;;;;;7.03;3.85;;;18.40;58.00;;;;;;4992159;28;20098;-77
2022/03/28 08:36:45;;;;;;;8.75;4.55;;;18.40;58.10;;;;;;4990445;28;20030;-74
2022/03/28 08:39:11;;;;;;;8.45;4.15;;;18.50;58.10;;;;;;4980964;28;20022;-75
2022/03/28 08:41:37;;;;;;;10.88;4.60;;;18.50;58.20;;;;;;4992097;28;20042;-73
2022/03/28 08:44:03;;;;;;;7.28;3.97;;;18.50;58.10;;;;;;4992532;28;20030;-75
2022/03/28 08:46:30;;;;;;;8.13;3.92;;;18.50;58.10;;;;;;4989795;28;20108;-74
2022/03/28 08:48:58;;;;;;;7.88;4.18;;;18.50;58.00;;;;;;4991992;28;20033;-78
2022/03/28 08:51:25;;;;;;;9.55;4.70;;;18.60;58.00;;;;;;4973831;28;20038;-77
2022/03/28 08:53:51;;;;;;;7.15;4.18;;;18.60;57.90;;;;;;4992109;28;20109;-78
2022/03/28 08:56:16;;;;;;;9.20;4.43;;;18.60;57.90;;;;;;4986046;28;20027;-72
2022/03/28 08:58:42;;;;;;;8.48;4.18;;;18.70;57.90;;;;;;4975934;28;20031;-77
2022/03/28 09:01:08;;;;;;;8.20;4.65;;;18.70;57.90;;;;;;4991536;28;20082;-73
2022/03/28 09:03:36;;;;;;;10.07;5.63;;;18.70;57.80;;;;;;4991524;28;20026;-76
2022/03/28 09:06:42;;;;;;;12.45;4.72;;;18.70;57.80;;;;;;4991333;28;20026;-76
2022/03/28 09:09:17;;;;;;;8.73;4.55;;;18.70;57.80;;;;;;4977769;28;20022;-74
2022/03/28 09:11:45;;;;;;;9.27;4.73;;;18.70;57.70;;;;;;4978674;28;20026;-76
2022/03/28 09:14:12;;;;;;;12.23;5.05;;;18.70;57.70;;;;;;4989932;28;20273;-76
2022/03/28 09:16:38;;;;;;;7.55;4.43;;;18.70;57.60;;;;;;4991397;28;20034;-74
2022/03/28 09:19:10;;;;;;;9.20;4.97;;;18.70;57.50;;;;;;4992052;28;20019;-76
2022/03/28 09:21:37;;;;;;;8.45;4.68;;;18.80;57.60;;;;;;4974330;28;20042;-75
2022/03/28 09:24:07;;;;;;;6.85;4.20;;;18.80;57.50;;;;;;4993232;28;20029;-76
2022/03/28 09:26:33;;;;;;;9.48;4.25;;;18.80;57.50;;;;;;4973055;28;20558;-77
2022/03/28 09:29:05;;;;;;;7.25;3.80;;;18.80;57.40;;;;;;4985562;28;20026;-77
2022/03/28 09:31:33;;;;;;;8.70;4.68;;;18.90;57.40;;;;;;4990261;28;20054;-77
2022/03/28 09:33:59;;;;;;;7.30;4.22;;;18.90;57.90;;;;;;4960816;28;20042;-76
2022/03/28 09:36:40;;;;;;;7.28;3.78;;;18.90;57.30;;;;;;4992639;28;20552;-78
2022/03/28 09:39:09;;;;;;;5.82;3.85;;;18.90;57.30;;;;;;4995886;28;20030;-77
2022/03/28 09:41:36;;;;;;;9.65;4.63;;;18.90;57.20;;;;;;4995176;28;20036;-77
2022/03/28 09:44:01;;;;;;;8.80;5.15;;;18.90;57.20;;;;;;4995475;28;20022;-76
2022/03/28 09:46:28;;;;;;;8.52;4.70;;;19.00;57.20;;;;;;4977546;28;20037;-78
2022/03/28 09:48:57;;;;;;;7.97;4.32;;;19.00;57.10;;;;;;4978210;28;20015;-76
2022/03/28 09:51:26;;;;;;;10.18;4.28;;;19.00;57.60;;;;;;4977528;28;20019;-76
2022/03/28 09:53:52;;;;;;;7.55;4.13;;;19.00;57.00;;;;;;4975700;28;20045;-76
2022/03/28 09:56:18;;;;;;;9.43;4.63;;;19.00;57.00;;;;;;4975149;28;20395;-76
2022/03/28 09:59:01;;;;;;;7.88;3.92;;;19.10;57.00;;;;;;4975857;28;20054;-77
2022/03/28 10:01:31;;;;;;;9.90;4.32;;;19.10;56.90;;;;;;4975503;28;20045;-78
2022/03/28 10:04:01;;;;;;;8.13;4.13;;;19.10;56.90;;;;;;4978836;28;20035;-76
2022/03/28 10:06:28;;;;;;;7.28;4.38;;;19.10;56.80;;;;;;4986760;28;20502;-79
2022/03/28 10:08:54;;;;;;;6.95;3.90;;;19.20;56.80;;;;;;4975544;28;20026;-77
2022/03/28 10:11:19;;;;;;;8.63;4.68;;;19.20;56.70;;;;;;4975232;28;20542;-78
2022/03/28 10:13:45;;;;;;;7.10;4.03;;;19.20;56.60;;;;;;4984759;28;20102;-78
2022/03/28 10:16:11;;;;;;;6.82;4.25;;;19.20;56.50;;;;;;4986874;28;20023;-77
2022/03/28 10:18:39;;;;;;;8.65;4.93;;;19.20;56.50;;;;;;4959473;28;20057;-77
2022/03/28 10:21:27;;;;;;;8.73;4.57;;;19.20;56.50;;;;;;4989881;28;20509;-76
2022/03/28 10:24:14;;;;;;;7.65;4.30;;;19.30;56.50;;;;;;4975408;28;20046;-75
2022/03/28 10:26:44;;;;;;;7.75;4.20;;;19.30;56.40;;;;;;4957957;28;20393;-76
2022/03/28 10:29:12;;;;;;;7.10;4.03;;;19.30;56.50;;;;;;4975833;28;20507;-76
2022/03/28 10:31:54;;;;;;;7.88;4.43;;;19.30;56.40;;;;;;4975890;28;20023;-76
2022/03/28 10:34:45;;;;;;;7.63;4.50;;;19.40;56.40;;;;;;4974902;28;20109;-76
2022/03/28 10:37:26;;;;;;;7.22;4.68;;;19.50;56.30;;;;;;4990356;28;20018;-77
2022/03/28 10:40:11;;;;;;;8.98;4.80;;;19.60;56.20;;;;;;4979605;28;20113;-78
2022/03/28 10:42:48;;;;;;;8.80;5.50;;;19.70;56.30;;;;;;4971196;28;20058;-77
2022/03/28 10:45:19;;;;;;;8.85;4.72;;;19.80;56.20;;;;;;4984011;28;20066;-76
2022/03/28 10:47:56;;;;;;;8.82;4.47;;;19.90;56.10;;;;;;4982619;28;20030;-76
2022/03/28 10:50:30;;;;;;;11.63;4.82;;;20.00;56.00;;;;;;4983857;28;20015;-77
2022/03/28 10:53:23;;;;;;;8.98;4.97;;;20.10;55.90;;;;;;4974044;28;20132;-78
2022/03/28 10:55:56;;;;;;;8.68;4.63;;;20.20;55.70;;;;;;4982208;28;20033;-78
2022/03/28 10:58:31;;;;;;;12.13;5.05;;;20.30;55.60;;;;;;4993816;28;20513;-77
2022/03/28 11:01:09;;;;;;;10.80;5.05;;;20.40;55.60;;;;;;4988205;28;20042;-78
2022/03/28 11:03:46;;;;;;;12.82;5.50;;;20.50;55.50;;;;;;4993133;28;20057;-77
2022/03/28 11:06:14;;;;;;;13.45;5.30;;;20.70;55.60;;;;;;4993694;28;20034;-77
2022/03/28 11:08:46;;;;;;;11.80;7.85;;;20.80;55.50;;;;;;4993665;28;20022;-76
2022/03/28 11:11:22;;;;;;;15.18;8.50;;;20.90;55.80;;;;;;4982570;28;20372;-84
2022/03/28 11:14:00;;;;;;;;;;;21.00;55.70;;;;;;4990366;28;20030;-78
2022/03/28 11:16:52;;;;;;;17.52;10.13;;;21.10;55.70;;;;;;4976215;28;19906;-78
2022/03/28 11:19:32;;;;;;;18.10;10.00;;;21.20;55.60;;;;;;4982572;28;20493;-78
2022/03/28 11:22:04;;;;;;;20.40;10.32;;;21.30;55.30;;;;;;4982020;28;20031;-78
2022/03/28 11:24:45;;;;;;;20.77;11.13;;;21.40;55.00;;;;;;4988250;28;20442;-77
2022/03/28 11:27:13;;;;;;;22.75;10.55;;;21.40;54.90;;;;;;5007569;28;20030;-77
2022/03/28 11:29:40;;;;;;;15.30;9.38;;;21.50;54.70;;;;;;4996750;28;20490;-79
2022/03/28 11:32:11;;;;;;;14.73;9.07;;;21.60;54.60;;;;;;4981444;28;20026;-77
2022/03/28 11:34:38;;;;;;;19.67;11.30;;;21.70;54.40;;;;;;4983110;28;20038;-77
2022/03/28 11:37:04;;;;;;;15.50;9.77;;;21.80;54.70;;;;;;4982523;28;20089;-78
2022/03/28 11:39:33;;;;;;;17.25;8.95;;;22.00;54.00;;;;;;4980185;28;20089;-78
2022/03/28 11:41:59;;;;;;;15.48;8.55;;;22.10;53.90;;;;;;4981916;28;20035;-77
2022/03/28 11:44:25;;;;;;;15.05;8.65;;;22.20;53.70;;;;;;4963297;28;20024;-77
2022/03/28 11:46:55;;;;;;;19.10;8.80;;;22.30;53.70;;;;;;4981880;28;20621;-77
2022/03/28 11:49:21;;;;;;;15.23;8.35;;;22.40;53.50;;;;;;4981658;28;20023;-77
2022/03/28 11:51:48;;;;;;;11.93;6.18;;;22.50;53.30;;;;;;4964737;28;20042;-79
2022/03/28 11:54:16;;;;;;;15.13;7.75;;;22.60;53.20;;;;;;4963864;28;20030;-78
2022/03/28 11:59:30;;;;;;;10.18;5.90;;;22.80;52.90;;;;;;4981752;28;20073;-78
2022/03/28 12:02:02;;;;;;;10.32;6.05;;;22.90;52.70;;;;;;4965632;28;20509;-79
2022/03/28 12:04:29;;;;;;;11.07;6.32;;;22.90;52.50;;;;;;4984774;28;20045;-79
2022/03/28 12:06:56;;;;;;;8.43;5.18;;;23.00;52.60;;;;;;4992840;28;20101;-77
2022/03/28 12:09:22;;;;;;;8.55;4.88;;;23.00;52.50;;;;;;4991728;28;20025;-80
2022/03/28 12:11:50;;;;;;;9.50;5.65;;;23.10;52.50;;;;;;4992023;28;20018;-79
2022/03/28 12:14:16;;;;;;;9.13;5.57;;;23.10;52.50;;;;;;4991870;28;20034;-80
2022/03/28 12:16:47;;;;;;;10.18;5.55;;;23.10;52.50;;;;;;4984161;28;20478;-79
2022/03/28 12:19:30;;;;;;;9.68;5.70;;;23.10;52.50;;;;;;4979393;28;20031;-80
2022/03/28 12:22:12;;;;;;;9.35;5.35;;;23.20;52.40;;;;;;4991323;28;20138;-81
2022/03/28 12:24:49;;;;;;;13.07;5.18;;;23.20;52.40;;;;;;5010466;28;20489;-80
2022/03/28 12:27:19;;;;;;;10.52;5.40;;;23.30;52.40;;;;;;4981349;28;20041;-76
2022/03/28 12:29:44;;;;;;;10.57;6.00;;;23.30;52.40;;;;;;4980582;28;20453;-79
2022/03/28 12:32:16;;;;;;;10.18;5.28;;;23.20;52.30;;;;;;4989277;28;20094;-81
2022/03/28 12:34:42;;;;;;;10.98;5.43;;;23.20;52.30;;;;;;4991771;28;20034;-77
2022/03/28 12:37:12;;;;;;;8.13;4.85;;;23.30;52.40;;;;;;4987549;28;20027;-77
2022/03/28 12:39:41;;;;;;;8.32;4.45;;;23.30;52.30;;;;;;4977838;28;20022;-79
2022/03/28 12:42:06;;;;;;;8.30;4.80;;;23.40;52.30;;;;;;4992200;28;20030;-78
2022/03/28 12:44:33;;;;;;;7.53;4.75;;;23.40;52.20;;;;;;4992007;28;20022;-78
2022/03/28 12:47:04;;;;;;;11.30;4.90;;;23.40;52.40;;;;;;4974738;28;20146;-81
2022/03/28 12:49:43;;;;;;;9.20;4.82;;;23.30;52.50;;;;;;4974479;28;20045;-81
2022/03/28 12:52:11;;;;;;;8.75;4.63;;;23.40;52.50;;;;;;4984601;28;20026;-81